Aviation

FTHA31 MTPP 222200
TAF MTPP 221600Z 2300/2400 10010KT 9000 FEW028CB SCT030
PROB40 TEMPO 2302/2308 4000 TSRA SCT024CB BKN020
BECMG 2309/2312 VRB02KT 7000 NSW SCT020
FM231400 10012KT 9000 FEW024 SCT030=